Time;durP1;ratioP1;P1;durP2;ratioP2;P2;SDS_P1;SDS_P2;PMS_P1;PMS_P2;Temp;Humidity;BMP_temperature;BMP_pressure;BME280_temperature;BME280_humidity;BME280_pressure;Samples;Min_cycle;Max_cycle;Signal;HPM_P1;HPM_P2
2021/10/12 00:01:33;;;;;;;27.80;23.53;;;17.60;52.60;;;;;;5047478;28;20195;-48
2021/10/12 00:03:58;;;;;;;29.20;24.00;;;17.50;52.60;;;;;;5045916;28;20223;-44
2021/10/12 00:06:24;;;;;;;28.87;22.43;;;17.50;53.20;;;;;;5047269;28;20232;-45
2021/10/12 00:08:50;;;;;;;26.07;20.60;;;17.40;52.80;;;;;;5048411;28;20204;-46
2021/10/12 00:11:15;;;;;;;30.70;24.00;;;17.30;53.20;;;;;;5050025;28;20276;-44
2021/10/12 00:13:41;;;;;;;24.93;21.07;;;17.30;53.80;;;;;;5045828;28;20208;-45
2021/10/12 00:16:06;;;;;;;28.50;23.17;;;17.40;53.70;;;;;;5049991;28;20310;-46
2021/10/12 00:18:32;;;;;;;29.10;21.20;;;17.40;53.80;;;;;;5047055;28;20185;-45
2021/10/12 00:20:57;;;;;;;27.23;21.90;;;17.40;53.50;;;;;;5049738;28;20188;-44
2021/10/12 00:23:23;;;;;;;26.77;23.00;;;17.50;53.60;;;;;;5047169;28;20203;-45
2021/10/12 00:25:49;;;;;;;25.10;21.40;;;17.50;53.30;;;;;;5045566;28;20189;-45
2021/10/12 00:28:15;;;;;;;22.63;17.90;;;17.60;53.00;;;;;;5046678;28;20200;-49
2021/10/12 00:30:40;;;;;;;24.37;18.57;;;17.60;53.10;;;;;;5047240;28;21897;-50
2021/10/12 00:33:06;;;;;;;22.77;18.97;;;17.60;53.30;;;;;;5049570;28;20559;-49
2021/10/12 00:35:31;;;;;;;22.60;15.43;;;17.70;53.10;;;;;;5046468;28;20228;-50
2021/10/12 00:37:57;;;;;;;21.20;16.67;;;17.70;53.20;;;;;;5046457;28;20335;-50
2021/10/12 00:40:23;;;;;;;18.90;15.50;;;17.70;53.80;;;;;;5045220;28;20532;-47
2021/10/12 00:42:49;;;;;;;20.23;17.40;;;17.80;53.40;;;;;;5050716;28;20189;-48
2021/10/12 00:45:16;;;;;;;26.37;20.20;;;17.80;53.40;;;;;;5046627;28;20469;-49
2021/10/12 00:48:03;;;;;;;24.23;18.20;;;17.80;53.20;;;;;;5046124;28;20189;-49
2021/10/12 00:50:31;;;;;;;23.77;18.87;;;17.90;52.80;;;;;;5042870;28;20942;-49
2021/10/12 00:52:57;;;;;;;27.30;20.57;;;17.80;52.70;;;;;;5045143;28;20440;-49
2021/10/12 00:55:22;;;;;;;28.57;22.73;;;17.90;52.70;;;;;;5043313;28;21004;-50
2021/10/12 00:57:49;;;;;;;30.10;22.27;;;17.80;52.70;;;;;;5043275;28;20222;-50
2021/10/12 01:00:14;;;;;;;29.27;22.67;;;17.80;53.10;;;;;;5047525;28;20192;-48
2021/10/12 01:02:40;;;;;;;26.30;21.90;;;17.70;52.30;;;;;;5048175;28;20439;-49
2021/10/12 01:05:07;;;;;;;24.43;19.07;;;17.60;52.60;;;;;;5044892;28;20580;-47
2021/10/12 01:07:33;;;;;;;24.73;19.90;;;17.40;52.50;;;;;;5045086;28;20197;-49
2021/10/12 01:09:58;;;;;;;26.97;19.30;;;17.30;53.10;;;;;;5047269;28;20438;-51
2021/10/12 01:12:24;;;;;;;30.70;22.30;;;17.30;53.50;;;;;;5049319;28;20210;-50
2021/10/12 01:14:50;;;;;;;23.53;18.37;;;17.30;53.80;;;;;;5047446;28;20660;-50
2021/10/12 01:17:15;;;;;;;28.00;21.40;;;17.30;53.80;;;;;;5023067;28;20688;-49
2021/10/12 01:19:41;;;;;;;24.13;20.03;;;17.40;54.10;;;;;;5045777;28;20710;-50
2021/10/12 01:22:07;;;;;;;28.40;21.57;;;17.40;53.90;;;;;;5045654;28;20231;-49
2021/10/12 01:24:32;;;;;;;28.50;22.23;;;17.40;53.70;;;;;;5048015;28;20306;-50
2021/10/12 01:26:58;;;;;;;25.53;21.07;;;17.40;53.70;;;;;;5050803;28;20185;-50
2021/10/12 01:29:24;;;;;;;24.70;20.00;;;17.40;53.70;;;;;;5044416;28;20196;-50
2021/10/12 01:31:49;;;;;;;23.17;18.40;;;17.50;53.90;;;;;;5053447;28;20282;-47
2021/10/12 01:34:20;;;;;;;25.33;20.50;;;17.50;53.60;;;;;;5047173;28;20274;-50
2021/10/12 01:36:48;;;;;;;22.20;18.50;;;17.50;53.30;;;;;;5047389;28;20224;-50
2021/10/12 01:39:15;;;;;;;27.90;21.03;;;17.50;53.40;;;;;;5050705;28;20529;-49
2021/10/12 01:41:41;;;;;;;29.53;22.60;;;17.60;53.60;;;;;;5045476;28;20443;-51
2021/10/12 01:44:16;;;;;;;28.63;23.77;;;17.60;53.40;;;;;;5046541;28;20534;-51
2021/10/12 01:46:42;;;;;;;25.37;21.33;;;17.60;53.00;;;;;;5051379;28;21274;-49
2021/10/12 01:49:08;;;;;;;21.33;16.13;;;17.60;53.20;;;;;;5050465;28;20474;-49
2021/10/12 01:51:35;;;;;;;23.70;18.13;;;17.60;53.30;;;;;;5047705;28;20936;-48
2021/10/12 01:54:01;;;;;;;23.83;18.27;;;17.60;53.40;;;;;;5044169;28;20477;-47
2021/10/12 01:56:28;;;;;;;24.33;20.43;;;17.60;54.00;;;;;;5050708;28;20489;-49
2021/10/12 01:58:53;;;;;;;31.23;22.07;;;17.60;53.40;;;;;;5050631;28;20443;-50
2021/10/12 02:01:24;;;;;;;26.90;22.30;;;17.60;53.30;;;;;;5052989;28;20435;-48
2021/10/12 02:03:50;;;;;;;31.17;21.57;;;17.60;53.10;;;;;;5050552;28;20195;-49
2021/10/12 02:06:16;;;;;;;32.00;22.00;;;17.60;52.70;;;;;;5049433;28;20446;-49
2021/10/12 02:08:43;;;;;;;26.93;22.33;;;17.60;52.60;;;;;;5052483;28;20493;-50
2021/10/12 02:11:08;;;;;;;26.03;21.43;;;17.50;52.80;;;;;;5051980;28;20525;-48
2021/10/12 02:13:34;;;;;;;33.77;22.03;;;17.40;52.90;;;;;;5050745;28;20522;-50
2021/10/12 02:16:00;;;;;;;18.70;16.37;;;17.20;53.10;;;;;;5051494;28;20263;-49
2021/10/12 02:18:25;;;;;;;23.57;18.67;;;17.10;53.90;;;;;;5046657;28;20198;-50
2021/10/12 02:20:51;;;;;;;21.93;17.67;;;17.10;54.60;;;;;;5050784;28;20189;-49
2021/10/12 02:23:17;;;;;;;25.70;18.97;;;17.10;54.90;;;;;;5048881;28;20275;-50
2021/10/12 02:25:43;;;;;;;19.97;15.70;;;17.20;54.30;;;;;;5048113;28;20207;-50
2021/10/12 02:28:09;;;;;;;22.40;18.33;;;17.30;54.30;;;;;;5052436;28;20438;-49
2021/10/12 02:30:35;;;;;;;23.30;18.70;;;17.30;54.30;;;;;;5052220;28;20203;-49
2021/10/12 02:33:00;;;;;;;26.10;20.27;;;17.40;54.30;;;;;;5048991;28;20455;-49
2021/10/12 02:35:26;;;;;;;30.03;21.60;;;17.40;53.60;;;;;;5046336;28;20220;-51
2021/10/12 02:37:52;;;;;;;28.10;22.70;;;17.40;53.60;;;;;;5047321;28;20206;-49
2021/10/12 02:40:17;;;;;;;30.40;22.70;;;17.40;54.10;;;;;;5049174;28;20228;-48
2021/10/12 02:42:43;;;;;;;29.83;23.23;;;17.30;53.70;;;;;;5030418;28;20227;-50
2021/10/12 02:45:09;;;;;;;28.97;21.40;;;17.30;53.60;;;;;;5048994;28;20242;-49
2021/10/12 02:47:34;;;;;;;29.47;24.33;;;17.30;53.80;;;;;;5048019;28;20192;-49
2021/10/12 02:50:05;;;;;;;28.93;22.40;;;17.30;54.10;;;;;;5048501;28;20228;-50
2021/10/12 02:52:31;;;;;;;29.87;23.87;;;17.30;54.20;;;;;;5046668;28;20247;-48
2021/10/12 02:54:57;;;;;;;32.27;22.23;;;17.40;54.40;;;;;;5047016;28;20442;-49
2021/10/12 02:57:23;;;;;;;24.63;19.20;;;17.40;54.10;;;;;;5040980;28;20193;-50
2021/10/12 02:59:49;;;;;;;24.77;19.70;;;17.40;53.90;;;;;;5049557;28;20220;-48
2021/10/12 03:02:15;;;;;;;22.83;18.40;;;17.50;53.90;;;;;;5050625;28;20474;-50
2021/10/12 03:04:40;;;;;;;21.80;18.00;;;17.50;53.40;;;;;;5045707;28;20276;-46
2021/10/12 03:07:06;;;;;;;22.27;18.20;;;17.50;53.10;;;;;;5042419;28;20484;-50
2021/10/12 03:09:31;;;;;;;21.00;18.60;;;17.50;53.30;;;;;;5048406;28;20271;-48
2021/10/12 03:11:57;;;;;;;22.60;18.10;;;17.50;53.20;;;;;;5051617;28;20238;-50
2021/10/12 03:14:23;;;;;;;24.63;18.73;;;17.40;53.00;;;;;;5048866;28;20242;-48
2021/10/12 03:16:48;;;;;;;23.20;17.20;;;17.30;53.50;;;;;;5047663;28;20220;-47
2021/10/12 03:19:16;;;;;;;19.93;17.60;;;17.40;53.50;;;;;;5049818;28;20196;-46
2021/10/12 03:21:52;;;;;;;20.47;17.40;;;17.40;53.40;;;;;;5049985;28;20687;-45
2021/10/12 03:24:18;;;;;;;21.43;17.30;;;17.40;53.60;;;;;;5040345;28;20447;-49
2021/10/12 03:26:44;;;;;;;22.50;19.17;;;17.40;53.60;;;;;;5049015;28;20493;-45
2021/10/12 03:29:10;;;;;;;32.07;18.93;;;17.50;53.60;;;;;;5049747;28;20530;-49
2021/10/12 03:31:35;;;;;;;23.40;19.37;;;17.50;53.60;;;;;;5051013;28;20241;-45
2021/10/12 03:34:01;;;;;;;19.10;17.07;;;17.60;53.60;;;;;;5049478;28;20735;-45
2021/10/12 03:36:26;;;;;;;17.23;14.77;;;17.60;53.20;;;;;;5038407;28;20264;-49
2021/10/12 03:38:52;;;;;;;23.30;19.30;;;17.60;53.30;;;;;;5044555;28;20302;-47
2021/10/12 03:41:17;;;;;;;24.53;19.33;;;17.60;53.70;;;;;;5048409;28;20192;-47
2021/10/12 03:43:43;;;;;;;25.03;22.00;;;17.70;53.60;;;;;;5044133;28;20616;-45
2021/10/12 03:46:09;;;;;;;33.40;23.20;;;17.60;52.80;;;;;;5042442;28;20242;-51
2021/10/12 03:48:34;;;;;;;26.00;21.23;;;17.50;52.80;;;;;;5049406;28;20232;-48
2021/10/12 03:51:01;;;;;;;24.53;19.60;;;17.40;53.40;;;;;;5049445;28;20232;-49
2021/10/12 03:53:27;;;;;;;27.40;21.20;;;17.30;53.90;;;;;;5050410;28;20438;-47
2021/10/12 03:55:52;;;;;;;22.57;17.90;;;17.30;54.80;;;;;;5028643;28;20556;-44
2021/10/12 03:58:18;;;;;;;26.27;21.17;;;17.30;54.80;;;;;;5044244;28;20998;-47
2021/10/12 04:00:44;;;;;;;21.63;15.10;;;17.30;54.60;;;;;;5042423;28;20196;-47
2021/10/12 04:03:09;;;;;;;22.70;16.90;;;17.40;54.90;;;;;;5047726;28;20288;-46
2021/10/12 04:05:35;;;;;;;20.23;15.93;;;17.40;54.70;;;;;;5044640;28;20191;-47
2021/10/12 04:08:00;;;;;;;20.07;16.17;;;17.50;55.00;;;;;;5042312;28;20199;-45
2021/10/12 04:10:26;;;;;;;21.93;18.57;;;17.60;54.80;;;;;;5046618;28;20201;-46
2021/10/12 04:12:51;;;;;;;16.80;11.60;;;17.70;54.70;;;;;;5044125;28;20196;-46
2021/10/12 04:15:17;;;;;;;20.03;15.33;;;17.70;54.60;;;;;;5043615;28;20663;-47
2021/10/12 04:17:43;;;;;;;22.50;18.03;;;17.80;54.30;;;;;;5043509;28;20600;-46
2021/10/12 04:20:09;;;;;;;17.77;14.73;;;17.80;54.10;;;;;;5045474;28;20201;-45
2021/10/12 04:22:35;;;;;;;27.40;20.60;;;17.90;54.10;;;;;;5045197;28;20196;-46
2021/10/12 04:25:01;;;;;;;18.20;13.90;;;17.80;53.90;;;;;;5040987;28;20805;-49
2021/10/12 04:27:27;;;;;;;23.93;19.03;;;17.90;54.30;;;;;;5045283;28;20242;-44
2021/10/12 04:29:53;;;;;;;21.10;18.80;;;17.90;54.00;;;;;;5045201;28;20196;-46
2021/10/12 04:32:19;;;;;;;23.77;19.10;;;18.00;54.00;;;;;;5049058;28;20438;-46
2021/10/12 04:34:44;;;;;;;31.20;22.90;;;18.00;53.70;;;;;;5046997;28;20442;-45
2021/10/12 04:37:10;;;;;;;31.77;22.60;;;18.00;53.10;;;;;;5048806;28;20710;-45
2021/10/12 04:39:36;;;;;;;28.07;21.93;;;17.80;52.70;;;;;;5047337;28;20205;-46
2021/10/12 04:42:02;;;;;;;28.33;22.77;;;17.60;53.00;;;;;;5047218;28;20199;-47
2021/10/12 04:44:29;;;;;;;31.70;22.90;;;17.40;53.50;;;;;;5045851;28;20189;-46
2021/10/12 04:46:54;;;;;;;31.87;23.93;;;17.20;54.20;;;;;;5046801;28;20683;-46
2021/10/12 04:49:20;;;;;;;33.57;24.50;;;17.00;54.70;;;;;;5047699;28;20467;-45
2021/10/12 04:51:47;;;;;;;32.10;25.90;;;16.80;55.30;;;;;;5050714;28;20196;-47
2021/10/12 04:54:12;;;;;;;34.10;24.93;;;16.70;55.90;;;;;;5047872;28;20530;-46
2021/10/12 04:56:38;;;;;;;32.40;24.47;;;16.60;56.50;;;;;;5045011;28;20609;-46
2021/10/12 04:59:04;;;;;;;29.00;22.77;;;16.40;57.00;;;;;;5050486;28;20231;-47
2021/10/12 05:01:30;;;;;;;35.00;25.23;;;16.30;57.50;;;;;;5052186;28;20279;-47
2021/10/12 05:03:55;;;;;;;32.43;25.10;;;16.20;57.80;;;;;;5046540;28;21221;-45
2021/10/12 05:06:21;;;;;;;32.63;23.83;;;16.20;58.20;;;;;;5045368;28;20203;-47
2021/10/12 05:08:47;;;;;;;34.10;24.63;;;16.10;58.80;;;;;;5043821;28;20616;-46
2021/10/12 05:11:13;;;;;;;30.87;23.70;;;16.00;59.50;;;;;;5046461;28;20192;-45
2021/10/12 05:13:38;;;;;;;31.47;23.17;;;16.00;59.30;;;;;;5048238;28;20926;-46
2021/10/12 05:16:10;;;;;;;33.20;25.10;;;15.90;59.30;;;;;;5052423;28;20591;-46
2021/10/12 05:18:37;;;;;;;31.30;24.50;;;15.90;59.50;;;;;;5051720;28;20254;-46
2021/10/12 05:21:03;;;;;;;30.93;23.10;;;15.80;59.60;;;;;;5047561;28;20464;-44
2021/10/12 05:23:29;;;;;;;32.43;23.20;;;15.90;59.90;;;;;;5051343;28;20558;-48
2021/10/12 05:25:54;;;;;;;31.53;22.43;;;16.00;60.30;;;;;;5041666;28;20193;-44
2021/10/12 05:28:20;;;;;;;32.40;22.10;;;16.10;59.90;;;;;;5052762;28;20655;-46
2021/10/12 05:30:46;;;;;;;27.43;22.17;;;16.20;59.40;;;;;;5048256;28;20271;-44
2021/10/12 05:33:14;;;;;;;34.40;24.10;;;16.30;59.20;;;;;;5051902;28;21027;-46
2021/10/12 05:35:40;;;;;;;29.90;23.40;;;16.30;59.10;;;;;;5045917;28;20208;-45
2021/10/12 05:38:06;;;;;;;33.47;23.07;;;16.30;59.20;;;;;;5046633;28;20477;-46
2021/10/12 05:40:32;;;;;;;31.13;21.33;;;16.30;59.40;;;;;;5049823;28;20949;-44
2021/10/12 05:42:57;;;;;;;26.87;21.03;;;16.40;59.30;;;;;;5048932;28;20208;-45
2021/10/12 05:45:23;;;;;;;26.70;19.00;;;16.30;59.00;;;;;;5048965;28;20548;-46
2021/10/12 05:47:49;;;;;;;32.97;22.17;;;16.30;59.10;;;;;;5052444;28;20723;-44
2021/10/12 05:50:16;;;;;;;30.43;21.93;;;16.30;59.40;;;;;;5048909;28;20235;-44
2021/10/12 05:52:47;;;;;;;27.07;21.20;;;16.40;58.70;;;;;;5048841;28;20566;-44
2021/10/12 05:55:18;;;;;;;23.83;19.17;;;16.30;58.70;;;;;;5049161;28;20440;-44
2021/10/12 06:00:41;;;;;;;23.60;20.77;;;16.40;58.80;;;;;;5001871;28;20973;-48
2021/10/12 06:03:07;;;;;;;28.57;21.43;;;16.50;58.90;;;;;;5047963;28;20427;-46
2021/10/12 06:05:35;;;;;;;31.83;21.10;;;16.50;58.80;;;;;;5047030;28;20335;-44
2021/10/12 06:08:01;;;;;;;30.80;19.50;;;16.60;58.60;;;;;;5040796;28;20270;-49
2021/10/12 06:10:27;;;;;;;29.40;21.50;;;16.50;59.00;;;;;;5046572;28;20484;-44
2021/10/12 06:12:53;;;;;;;25.23;19.40;;;16.60;58.40;;;;;;5042758;28;20189;-49
2021/10/12 06:15:19;;;;;;;30.20;21.37;;;16.60;58.40;;;;;;5049655;28;20489;-50
2021/10/12 06:17:44;;;;;;;25.70;20.40;;;16.60;58.60;;;;;;5048642;28;20435;-46
2021/10/12 06:20:10;;;;;;;25.80;19.50;;;16.60;58.50;;;;;;5048687;28;20197;-45
2021/10/12 06:22:36;;;;;;;26.20;18.97;;;16.60;58.50;;;;;;5051106;28;20189;-47
2021/10/12 06:25:01;;;;;;;27.80;21.33;;;16.60;58.50;;;;;;5048277;28;20200;-48
2021/10/12 06:27:27;;;;;;;24.90;20.13;;;16.70;58.50;;;;;;5044729;28;20193;-48
2021/10/12 06:29:52;;;;;;;25.57;19.17;;;16.70;58.40;;;;;;5049047;28;20653;-45
2021/10/12 06:32:18;;;;;;;24.67;20.17;;;16.70;58.30;;;;;;5050609;28;20203;-48
2021/10/12 06:34:44;;;;;;;22.97;19.33;;;16.70;58.30;;;;;;5052827;28;20275;-50
2021/10/12 06:37:10;;;;;;;24.13;18.63;;;16.60;58.50;;;;;;5052946;28;20236;-45
2021/10/12 06:39:36;;;;;;;24.57;18.37;;;16.60;58.60;;;;;;5052903;28;20493;-46
2021/10/12 06:42:02;;;;;;;26.13;18.80;;;16.60;58.80;;;;;;5053805;28;20195;-48
2021/10/12 06:44:27;;;;;;;24.00;18.30;;;16.50;58.70;;;;;;5053081;28;20196;-48
2021/10/12 06:46:53;;;;;;;21.50;17.13;;;16.50;58.70;;;;;;5053075;28;20802;-45
2021/10/12 06:49:19;;;;;;;23.27;18.57;;;16.50;59.00;;;;;;5051468;28;20240;-48
2021/10/12 06:51:44;;;;;;;26.17;17.93;;;16.50;59.20;;;;;;5053155;28;20196;-45
2021/10/12 06:54:10;;;;;;;21.40;15.17;;;16.50;59.10;;;;;;5052837;28;20192;-49
2021/10/12 06:56:36;;;;;;;21.33;16.53;;;16.50;59.00;;;;;;5049757;28;20679;-45
2021/10/12 06:59:01;;;;;;;23.03;16.90;;;16.50;58.90;;;;;;5052376;28;20263;-49
2021/10/12 07:01:27;;;;;;;26.07;17.03;;;16.40;58.80;;;;;;5053363;28;20203;-45
2021/10/12 07:03:53;;;;;;;20.83;17.00;;;16.40;59.30;;;;;;5052586;28;20669;-48
2021/10/12 07:06:18;;;;;;;22.93;15.30;;;16.40;59.60;;;;;;5052904;28;20427;-45
2021/10/12 07:08:44;;;;;;;19.27;17.10;;;16.40;59.60;;;;;;5052423;28;20193;-48
2021/10/12 07:11:10;;;;;;;21.03;17.13;;;16.50;59.70;;;;;;5052996;28;20185;-50
2021/10/12 07:13:35;;;;;;;22.37;16.47;;;16.50;59.70;;;;;;5052898;28;20211;-48
2021/10/12 07:16:01;;;;;;;28.13;16.83;;;16.60;59.70;;;;;;5051870;28;20370;-44
2021/10/12 07:18:26;;;;;;;17.67;14.63;;;16.60;59.80;;;;;;5052685;28;20647;-49
2021/10/12 07:20:52;;;;;;;20.83;15.63;;;16.70;59.80;;;;;;5051402;28;20188;-48
2021/10/12 07:23:18;;;;;;;25.03;18.43;;;16.70;59.60;;;;;;5051279;28;20234;-49
2021/10/12 07:25:48;;;;;;;22.93;17.37;;;16.70;59.50;;;;;;5023987;28;20190;-45
2021/10/12 07:28:14;;;;;;;22.80;17.27;;;16.70;59.50;;;;;;5038604;28;20261;-49
2021/10/12 07:30:40;;;;;;;28.13;18.73;;;16.70;59.60;;;;;;5052317;28;20502;-49
2021/10/12 07:33:06;;;;;;;22.97;17.80;;;16.70;59.70;;;;;;5052596;28;20927;-46
2021/10/12 07:35:32;;;;;;;22.43;16.77;;;16.70;59.80;;;;;;5051704;28;20478;-48
2021/10/12 07:37:58;;;;;;;19.17;16.03;;;16.80;60.00;;;;;;5052064;28;20839;-50
2021/10/12 07:40:24;;;;;;;21.93;15.43;;;16.80;59.90;;;;;;5051823;28;20200;-49
2021/10/12 07:42:49;;;;;;;21.87;17.30;;;16.90;59.90;;;;;;5052693;28;20782;-50
2021/10/12 07:45:15;;;;;;;20.50;15.77;;;16.90;59.80;;;;;;5051564;28;20189;-49
2021/10/12 07:47:41;;;;;;;20.63;15.80;;;16.90;60.50;;;;;;5051654;28;20228;-48
2021/10/12 07:50:07;;;;;;;20.80;16.20;;;16.90;59.80;;;;;;5046799;28;20636;-49
2021/10/12 07:52:35;;;;;;;19.00;15.33;;;16.90;59.80;;;;;;5039278;28;20239;-48
2021/10/12 07:57:35;;;;;;;20.70;14.97;;;16.90;60.00;;;;;;5049965;28;20458;-49
2021/10/12 08:00:00;;;;;;;21.50;14.13;;;16.90;61.20;;;;;;5049523;28;20431;-46
2021/10/12 08:02:26;;;;;;;15.50;13.20;;;16.80;60.60;;;;;;5046316;28;20200;-45
2021/10/12 08:04:52;;;;;;;16.93;12.80;;;16.70;60.70;;;;;;5047109;28;20585;-45
2021/10/12 08:07:17;;;;;;;15.83;12.63;;;16.60;61.40;;;;;;5050994;28;20193;-45
2021/10/12 08:09:43;;;;;;;19.33;12.77;;;16.60;61.60;;;;;;5043024;28;20192;-45
2021/10/12 08:12:09;;;;;;;16.30;12.37;;;16.60;61.70;;;;;;5049954;28;20193;-44
2021/10/12 08:14:39;;;;;;;28.70;15.13;;;16.50;61.50;;;;;;5050253;28;20216;-44
2021/10/12 08:17:05;;;;;;;12.77;11.27;;;16.50;61.60;;;;;;5047349;28;20251;-45
2021/10/12 08:19:31;;;;;;;18.57;11.50;;;16.60;61.90;;;;;;5048928;28;22108;-46
2021/10/12 08:21:57;;;;;;;15.13;11.67;;;16.60;61.80;;;;;;5047535;28;20557;-45
2021/10/12 08:24:22;;;;;;;16.97;12.20;;;16.70;61.50;;;;;;5049772;28;20669;-45
2021/10/12 08:26:49;;;;;;;14.10;12.33;;;16.60;61.40;;;;;;5051050;28;20276;-45
2021/10/12 08:29:15;;;;;;;12.23;10.90;;;16.60;61.40;;;;;;5050486;28;20193;-47
2021/10/12 08:31:41;;;;;;;15.20;11.73;;;16.70;61.60;;;;;;5050409;28;21191;-47
2021/10/12 08:34:06;;;;;;;17.30;11.97;;;16.60;61.30;;;;;;5050876;28;20199;-48
2021/10/12 08:36:32;;;;;;;18.03;12.17;;;16.60;61.20;;;;;;5051082;28;20238;-45
2021/10/12 08:38:57;;;;;;;15.07;12.27;;;16.70;61.40;;;;;;5050314;28;20888;-50
2021/10/12 08:41:30;;;;;;;15.90;10.83;;;16.70;62.40;;;;;;5033478;28;20287;-49
2021/10/12 08:43:57;;;;;;;17.00;10.87;;;16.70;61.40;;;;;;5048083;28;20569;-44
2021/10/12 08:46:26;;;;;;;13.43;10.70;;;16.70;61.70;;;;;;5050786;28;20560;-45
2021/10/12 08:48:57;;;;;;;15.00;11.43;;;16.70;61.60;;;;;;5047379;28;20515;-45
2021/10/12 08:51:23;;;;;;;16.77;11.70;;;16.70;61.60;;;;;;5050753;28;20431;-46
2021/10/12 08:53:48;;;;;;;16.97;12.07;;;16.70;61.50;;;;;;5050684;28;20443;-46
2021/10/12 08:56:14;;;;;;;13.23;10.27;;;16.60;61.40;;;;;;5050581;28;20494;-45
2021/10/12 08:58:40;;;;;;;15.53;11.13;;;16.70;61.50;;;;;;5050812;28;20234;-46
2021/10/12 09:01:10;;;;;;;15.07;10.80;;;16.70;61.40;;;;;;5048715;28;20587;-45
2021/10/12 09:06:30;;;;;;;17.57;10.40;;;16.80;61.50;;;;;;5044740;28;20435;-47
2021/10/12 09:09:07;;;;;;;14.83;11.10;;;16.80;61.20;;;;;;5049825;28;20969;-45
2021/10/12 09:11:35;;;;;;;18.17;10.43;;;16.70;61.20;;;;;;5048509;28;20442;-45
2021/10/12 09:14:11;;;;;;;19.33;11.37;;;16.70;61.90;;;;;;5050613;28;20430;-45
2021/10/12 09:16:42;;;;;;;15.50;10.00;;;16.70;62.70;;;;;;5048996;28;20487;-46
2021/10/12 09:19:12;;;;;;;13.40;10.50;;;16.50;62.60;;;;;;5050349;28;20439;-47
2021/10/12 09:21:39;;;;;;;14.60;9.80;;;16.60;62.70;;;;;;5045060;28;20576;-46
2021/10/12 09:24:09;;;;;;;14.03;9.07;;;16.60;63.10;;;;;;5028834;28;20539;-45
2021/10/12 09:26:39;;;;;;;15.27;12.00;;;16.50;62.60;;;;;;5047151;28;20866;-46
2021/10/12 09:29:09;;;;;;;11.30;9.60;;;16.50;62.50;;;;;;5050211;28;20434;-45
2021/10/12 09:31:45;;;;;;;10.80;9.30;;;16.70;62.70;;;;;;5050105;28;20534;-49
2021/10/12 09:34:13;;;;;;;13.27;9.80;;;16.70;63.60;;;;;;5047871;28;21275;-46
2021/10/12 09:36:44;;;;;;;13.97;9.93;;;16.80;62.10;;;;;;5049667;28;20490;-45
2021/10/12 09:39:15;;;;;;;10.97;9.30;;;16.80;61.90;;;;;;5046281;28;20814;-45
2021/10/12 09:41:55;;;;;;;19.50;9.53;;;16.60;61.40;;;;;;5047630;28;20554;-45
2021/10/12 09:44:21;;;;;;;12.87;9.20;;;16.70;61.70;;;;;;5050634;28;20496;-45
2021/10/12 09:46:50;;;;;;;14.43;11.07;;;16.70;61.90;;;;;;5053387;28;20817;-45
2021/10/12 09:49:24;;;;;;;11.73;10.27;;;16.90;61.50;;;;;;5053373;28;20307;-45
2021/10/12 09:52:06;;;;;;;11.60;8.73;;;16.80;62.00;;;;;;5051360;28;20843;-47
2021/10/12 09:54:37;;;;;;;10.80;8.90;;;16.80;60.80;;;;;;5051394;28;20438;-47
2021/10/12 09:57:06;;;;;;;12.20;9.33;;;16.70;61.00;;;;;;5044654;28;20487;-46
2021/10/12 09:59:33;;;;;;;9.70;7.67;;;16.70;61.30;;;;;;5053461;28;20439;-45
2021/10/12 10:02:00;;;;;;;9.53;7.77;;;16.80;60.90;;;;;;5053755;28;20526;-47
2021/10/12 10:04:28;;;;;;;9.33;8.10;;;16.40;60.90;;;;;;5052029;28;20435;-45
2021/10/12 10:07:04;;;;;;;9.13;8.20;;;16.20;61.00;;;;;;5040959;28;20459;-46
2021/10/12 10:09:31;;;;;;;10.97;8.23;;;16.10;62.20;;;;;;5052915;28;20468;-49
2021/10/12 10:11:58;;;;;;;12.90;7.63;;;16.30;62.50;;;;;;5052850;28;20439;-45
2021/10/12 10:14:25;;;;;;;11.00;7.87;;;16.20;61.40;;;;;;5053367;28;20462;-45
2021/10/12 10:16:57;;;;;;;11.60;7.83;;;16.00;61.80;;;;;;5047317;28;20484;-46
2021/10/12 10:19:25;;;;;;;10.90;7.67;;;16.10;62.80;;;;;;5052990;28;20431;-46
2021/10/12 10:21:51;;;;;;;9.53;8.23;;;16.20;63.90;;;;;;5054006;28;20427;-47
2021/10/12 10:24:36;;;;;;;8.43;7.43;;;16.20;63.90;;;;;;5052250;28;20484;-46
2021/10/12 10:27:03;;;;;;;8.93;8.00;;;16.20;64.00;;;;;;5052862;28;20231;-46
2021/10/12 10:29:37;;;;;;;14.73;7.93;;;16.20;64.20;;;;;;5052814;28;20438;-45
2021/10/12 10:32:16;;;;;;;13.20;8.40;;;16.30;64.30;;;;;;5053644;28;20453;-45
2021/10/12 10:34:56;;;;;;;9.47;8.40;;;16.40;64.40;;;;;;5051113;28;20465;-46
2021/10/12 10:37:23;;;;;;;8.23;7.37;;;16.40;64.70;;;;;;5050258;28;20902;-46
2021/10/12 10:40:03;;;;;;;9.33;7.90;;;16.30;64.10;;;;;;5049491;28;20443;-46
2021/10/12 10:42:49;;;;;;;16.70;9.67;;;16.50;64.70;;;;;;5053302;28;21014;-46
2021/10/12 10:45:15;;;;;;;10.43;7.40;;;16.50;64.90;;;;;;5051099;28;20450;-45
2021/10/12 10:47:41;;;;;;;12.20;8.07;;;16.50;64.10;;;;;;5052362;28;20431;-45
2021/10/12 10:50:24;;;;;;;10.93;8.00;;;16.50;64.00;;;;;;5043637;28;20559;-48
2021/10/12 10:52:52;;;;;;;9.40;6.70;;;16.60;63.50;;;;;;5048351;28;20235;-46
2021/10/12 10:55:27;;;;;;;13.30;8.60;;;16.60;63.20;;;;;;5041144;28;20450;-46
2021/10/12 10:58:05;;;;;;;9.90;6.57;;;16.70;63.70;;;;;;5044151;28;20529;-45
2021/10/12 11:00:41;;;;;;;12.80;6.30;;;16.60;62.30;;;;;;5051232;28;20530;-46
2021/10/12 11:03:08;;;;;;;10.63;6.10;;;16.60;63.50;;;;;;5050226;28;20439;-46
2021/10/12 11:05:43;;;;;;;7.70;5.07;;;16.60;62.30;;;;;;5050652;28;20454;-45
2021/10/12 11:08:15;;;;;;;9.97;6.33;;;16.70;61.80;;;;;;5051304;28;20450;-46
2021/10/12 11:10:43;;;;;;;8.10;6.20;;;16.70;61.20;;;;;;5049065;28;20423;-44
2021/10/12 11:13:09;;;;;;;8.70;6.50;;;16.80;60.90;;;;;;5050540;28;20431;-49
2021/10/12 11:15:55;;;;;;;12.00;6.70;;;16.80;61.00;;;;;;5049790;28;21071;-48
2021/10/12 11:18:21;;;;;;;7.70;6.30;;;16.90;61.00;;;;;;5051648;28;20295;-45
2021/10/12 11:20:49;;;;;;;10.47;7.33;;;16.90;61.30;;;;;;5049280;28;20526;-44
2021/10/12 11:23:24;;;;;;;7.80;6.67;;;16.90;61.80;;;;;;5051886;28;20534;-45
2021/10/12 11:25:58;;;;;;;11.63;6.80;;;17.00;61.80;;;;;;5051051;28;20430;-45
2021/10/12 11:28:27;;;;;;;11.43;7.90;;;17.00;62.00;;;;;;5045980;28;20968;-45
2021/10/12 11:30:53;;;;;;;10.03;7.20;;;16.80;62.20;;;;;;5045388;28;20431;-45
2021/10/12 11:33:39;;;;;;;10.10;7.10;;;16.60;62.00;;;;;;5043955;28;20436;-46
2021/10/12 11:36:07;;;;;;;8.87;6.80;;;16.70;62.30;;;;;;5050417;28;20234;-46
2021/10/12 11:39:05;;;;;;;11.00;6.90;;;16.80;62.30;;;;;;5051649;28;20434;-46
2021/10/12 11:41:38;;;;;;;9.07;6.50;;;16.70;62.90;;;;;;5040405;28;20465;-46
2021/10/12 11:44:15;;;;;;;10.53;6.17;;;16.80;63.40;;;;;;5050637;28;20482;-45
2021/10/12 11:46:49;;;;;;;11.50;6.43;;;16.80;62.90;;;;;;5051415;28;20537;-46
2021/10/12 11:49:17;;;;;;;7.43;6.40;;;16.90;62.30;;;;;;5050152;28;20524;-45
2021/10/12 11:51:44;;;;;;;8.70;7.30;;;17.00;61.80;;;;;;5051217;28;20931;-45
2021/10/12 11:54:11;;;;;;;9.70;6.13;;;16.90;62.20;;;;;;5051308;28;20581;-44
2021/10/12 11:56:38;;;;;;;5.73;5.00;;;17.00;62.40;;;;;;5051075;28;20487;-49
2021/10/12 11:59:05;;;;;;;7.53;4.40;;;17.00;62.20;;;;;;5047690;28;20526;-44
2021/10/12 12:01:39;;;;;;;11.40;4.37;;;16.80;60.40;;;;;;5040694;28;20544;-47
2021/10/12 12:04:05;;;;;;;8.17;4.90;;;16.90;61.20;;;;;;5050387;28;20946;-45
2021/10/12 12:06:34;;;;;;;7.30;4.00;;;16.90;60.30;;;;;;5048287;28;20435;-46
2021/10/12 12:09:06;;;;;;;7.30;4.17;;;16.80;59.00;;;;;;5054658;28;20800;-47
2021/10/12 12:11:32;;;;;;;9.60;4.40;;;16.70;59.00;;;;;;5051482;28;20816;-45
2021/10/12 12:13:59;;;;;;;6.30;4.10;;;16.70;58.80;;;;;;5050436;28;20551;-45
2021/10/12 12:16:32;;;;;;;7.07;4.63;;;16.80;59.30;;;;;;5047129;28;20489;-45
2021/10/12 12:18:59;;;;;;;7.53;4.97;;;16.90;59.20;;;;;;5040431;28;20431;-49
2021/10/12 12:21:33;;;;;;;5.10;3.60;;;17.00;58.70;;;;;;5045215;28;20951;-45
2021/10/12 12:24:01;;;;;;;5.07;3.77;;;17.10;58.70;;;;;;5048833;28;20443;-48
2021/10/12 12:26:29;;;;;;;10.43;4.00;;;17.10;58.10;;;;;;5046349;28;20573;-48
2021/10/12 12:29:18;;;;;;;7.07;3.70;;;17.10;58.20;;;;;;5047347;28;20887;-46
2021/10/12 12:31:52;;;;;;;10.43;3.80;;;17.00;58.60;;;;;;5050023;28;20442;-48
2021/10/12 12:34:32;;;;;;;6.33;3.63;;;17.00;58.30;;;;;;5045439;28;20481;-47
2021/10/12 12:37:00;;;;;;;5.33;3.60;;;17.10;58.00;;;;;;5046355;28;20512;-45
2021/10/12 12:39:43;;;;;;;6.60;4.40;;;17.20;57.20;;;;;;5046819;28;20430;-45
2021/10/12 12:42:34;;;;;;;7.43;3.73;;;17.30;57.30;;;;;;5049454;28;20443;-45